createdAt,value
2023-11-24T00:00:12.620Z,0.90
2023-11-24T00:04:21.723Z,0.70
2023-11-24T00:07:54.198Z,0.70
2023-11-24T00:11:15.600Z,0.60
2023-11-24T00:14:57.272Z,0.70
2023-11-24T00:18:20.420Z,0.90
2023-11-24T00:21:59.371Z,0.90
2023-11-24T00:25:48.502Z,4.50
2023-11-24T00:29:37.922Z,0.60
2023-11-24T00:33:12.606Z,1.40
2023-11-24T00:36:54.473Z,0.50
2023-11-24T00:40:43.751Z,0.80
2023-11-24T00:44:25.530Z,0.60
2023-11-24T00:47:27.235Z,1.20
2023-11-24T00:51:06.062Z,0.70
2023-11-24T00:54:30.021Z,0.60
2023-11-24T00:58:19.658Z,1.30
2023-11-24T01:02:01.323Z,1.70
2023-11-24T01:05:51.158Z,1.20
2023-11-24T01:09:40.548Z,1.10
2023-11-24T01:13:29.589Z,2.40
2023-11-24T01:17:11.281Z,0.80
2023-11-24T01:20:45.886Z,1.10
2023-11-24T01:24:35.217Z,0.90
2023-11-24T01:28:06.795Z,1.00
2023-11-24T01:31:22.902Z,1.30
2023-11-24T01:34:55.914Z,1.30
2023-11-24T01:38:24.928Z,0.70
2023-11-24T01:42:14.206Z,1.00
2023-11-24T01:46:01.735Z,1.30
2023-11-24T01:49:52.401Z,0.70
2023-11-24T01:53:40.117Z,0.60
2023-11-24T01:57:11.988Z,0.70
2023-11-24T02:00:46.886Z,0.90
2023-11-24T02:04:10.011Z,0.70
2023-11-24T02:07:51.849Z,0.50
2023-11-24T02:11:40.316Z,0.70
2023-11-24T02:15:19.233Z,0.60
2023-11-24T02:19:09.308Z,0.60
2023-11-24T02:22:58.340Z,0.40
2023-11-24T02:26:47.424Z,0.50
2023-11-24T02:30:36.688Z,0.50
2023-11-24T02:34:25.831Z,0.60
2023-11-24T02:37:58.279Z,1.70
2023-11-24T02:41:47.308Z,1.00
2023-11-24T02:45:28.893Z,0.80
2023-11-24T02:49:02.588Z,1.00
2023-11-24T02:56:19.215Z,1.00
2023-11-24T03:00:08.320Z,0.90
2023-11-24T03:03:50.076Z,0.90
2023-11-24T03:07:41.991Z,1.10
2023-11-24T03:11:31.198Z,1.40
2023-11-24T03:15:07.965Z,0.80
2023-11-24T03:18:49.617Z,1.10
2023-11-24T03:22:08.708Z,0.60
2023-11-24T03:25:31.603Z,0.80
2023-11-24T03:29:20.701Z,0.70
2023-11-24T03:33:10.066Z,1.40
2023-11-24T03:36:37.343Z,1.80
2023-11-24T03:40:19.976Z,2.30
2023-11-24T03:44:09.008Z,1.80
2023-11-24T03:47:58.159Z,2.50
2023-11-24T03:52:32.327Z,1.50
2023-11-24T03:55:53.911Z,1.90
2023-11-24T03:59:41.771Z,1.50
2023-11-24T04:03:13.415Z,2.10
2023-11-24T04:07:01.694Z,1.30
2023-11-24T04:10:25.220Z,1.70
2023-11-24T04:14:13.263Z,1.70
2023-11-24T04:18:02.547Z,3.40
2023-11-24T04:21:51.813Z,2.60
2023-11-24T04:25:40.916Z,4.40
2023-11-24T04:29:29.915Z,5.40
2023-11-24T04:33:19.023Z,6.30
2023-11-24T04:37:01.997Z,5.10
2023-11-24T04:40:51.139Z,4.60
2023-11-24T04:44:20.518Z,4.10
2023-11-24T04:47:52.109Z,5.10
2023-11-24T04:51:41.197Z,4.90
2023-11-24T04:55:30.276Z,5.60
2023-11-24T04:59:18.398Z,5.80
2023-11-24T05:02:52.309Z,7.10
2023-11-24T05:06:41.411Z,6.00
2023-11-24T05:09:52.877Z,5.70
2023-11-24T05:13:25.143Z,5.90
2023-11-24T05:16:57.459Z,8.40
2023-11-24T05:20:25.821Z,7.30
2023-11-24T05:23:58.456Z,8.80
2023-11-24T05:27:35.958Z,9.40
2023-11-24T05:31:05.061Z,17.10
2023-11-24T05:34:54.228Z,14.60
2023-11-24T05:38:28.638Z,14.70
2023-11-24T05:42:17.486Z,12.90
2023-11-24T05:46:07.135Z,8.10
2023-11-24T05:49:47.553Z,6.50
2023-11-24T05:53:00.178Z,8.20
2023-11-24T05:56:49.500Z,9.70
2023-11-24T06:00:08.656Z,9.80
2023-11-24T06:03:57.943Z,7.50
2023-11-24T06:07:56.368Z,5.70
2023-11-24T06:11:57.794Z,3.70
2023-11-24T06:16:09.685Z,3.80
2023-11-24T06:19:58.787Z,2.90
2023-11-24T06:22:48.875Z,1.00
2023-11-24T06:26:38.038Z,3.90
2023-11-24T06:30:27.690Z,3.40
2023-11-24T06:34:16.961Z,2.40
2023-11-24T06:38:07.356Z,8.70
2023-11-24T06:41:32.179Z,5.40
2023-11-24T06:45:09.703Z,7.00
2023-11-24T06:48:38.768Z,5.50
2023-11-24T06:52:08.145Z,3.50
2023-11-24T06:55:51.314Z,3.20
2023-11-24T06:59:41.090Z,2.90
2023-11-24T07:03:29.729Z,4.20
2023-11-24T07:06:53.428Z,3.20
2023-11-24T07:10:50.648Z,3.20
2023-11-24T07:14:25.852Z,2.80
2023-11-24T07:19:33.805Z,3.10
2023-11-24T07:22:30.810Z,3.40
2023-11-24T07:26:20.968Z,2.40
2023-11-24T07:30:10.861Z,7.30
2023-11-24T07:34:02.591Z,4.20
2023-11-24T07:37:41.963Z,3.80
2023-11-24T07:41:25.121Z,3.00
2023-11-24T07:45:14.466Z,2.50
2023-11-24T07:49:03.595Z,4.00
2023-11-24T07:52:37.262Z,2.70
2023-11-24T07:56:19.905Z,1.90
2023-11-24T08:00:01.438Z,2.70
2023-11-24T08:04:37.727Z,3.70
2023-11-24T08:08:02.164Z,2.90
2023-11-24T08:11:23.424Z,2.00
2023-11-24T08:16:11.728Z,3.50
2023-11-24T08:19:13.881Z,2.00
2023-11-24T08:22:35.048Z,2.00
2023-11-24T08:25:51.572Z,2.30
2023-11-24T08:28:57.919Z,2.50
2023-11-24T08:31:41.913Z,2.80
2023-11-24T08:34:25.949Z,2.30
2023-11-24T08:37:11.192Z,2.70
2023-11-24T08:40:12.273Z,2.20
2023-11-24T08:43:24.741Z,3.50
2023-11-24T08:46:33.877Z,2.00
2023-11-24T08:49:33.557Z,2.90
2023-11-24T08:53:18.826Z,3.00
2023-11-24T08:57:39.693Z,3.70
2023-11-24T09:00:58.253Z,3.30
2023-11-24T09:03:58.340Z,3.80
2023-11-24T09:07:28.344Z,3.50
2023-11-24T09:09:57.577Z,4.30
2023-11-24T09:12:40.911Z,4.60
2023-11-24T09:15:49.242Z,4.70
2023-11-24T09:19:15.367Z,8.80
2023-11-24T09:22:23.037Z,7.10
2023-11-24T09:26:16.572Z,4.90
2023-11-24T09:29:39.034Z,4.50
2023-11-24T09:33:18.490Z,4.80
2023-11-24T09:36:37.006Z,12.40
2023-11-24T09:39:33.715Z,8.00
2023-11-24T09:43:03.848Z,4.20
2023-11-24T09:46:51.226Z,5.50
2023-11-24T09:50:22.806Z,5.90
2023-11-24T09:54:14.464Z,5.60
2023-11-24T09:57:13.021Z,6.20
2023-11-24T09:59:57.383Z,4.50
2023-11-24T10:03:49.618Z,4.40
2023-11-24T10:07:32.841Z,4.70
2023-11-24T10:11:01.076Z,2.40
2023-11-24T10:14:32.225Z,2.00
2023-11-24T10:17:36.200Z,1.70
2023-11-24T10:21:33.256Z,1.80
2023-11-24T10:24:55.316Z,1.40
2023-11-24T10:27:51.247Z,1.20
2023-11-24T10:31:11.275Z,1.60
2023-11-24T10:34:43.719Z,1.10
2023-11-24T10:38:31.721Z,1.50
2023-11-24T10:42:01.825Z,1.10
2023-11-24T10:45:22.372Z,1.00
2023-11-24T10:49:00.898Z,2.10
2023-11-24T10:53:00.082Z,2.50
2023-11-24T10:56:34.741Z,2.70
2023-11-24T11:00:22.518Z,3.30
2023-11-24T11:04:12.581Z,3.60
2023-11-24T11:08:04.090Z,4.00
2023-11-24T11:12:05.200Z,3.60
2023-11-24T11:15:54.389Z,3.90
2023-11-24T11:19:43.540Z,5.00
2023-11-24T11:23:24.473Z,5.50
2023-11-24T11:27:25.595Z,5.20
2023-11-24T11:31:13.899Z,8.90
2023-11-24T11:35:12.072Z,11.10
2023-11-24T11:39:19.186Z,8.50
2023-11-24T11:43:08.003Z,8.90
2023-11-24T11:47:00.623Z,6.00
2023-11-24T11:50:29.506Z,5.30
2023-11-24T11:54:06.138Z,5.90
2023-11-24T11:57:55.605Z,6.00
2023-11-24T12:01:43.707Z,4.50
2023-11-24T12:05:33.145Z,4.50
2023-11-24T12:09:25.428Z,5.20
2023-11-24T12:13:14.525Z,6.10
2023-11-24T12:17:03.693Z,6.90
2023-11-24T12:20:52.882Z,9.00
2023-11-24T12:24:42.098Z,6.00
2023-11-24T12:28:31.254Z,3.60
2023-11-24T12:32:23.031Z,4.00
2023-11-24T12:36:05.726Z,3.50
2023-11-24T12:39:54.780Z,1.60
2023-11-24T12:43:09.254Z,2.20
2023-11-24T12:47:01.461Z,1.20
2023-11-24T12:51:05.721Z,1.70
2023-11-24T12:54:47.495Z,1.70
2023-11-24T12:58:16.434Z,1.70
2023-11-24T13:02:07.168Z,1.90
2023-11-24T13:09:19.858Z,1.40
2023-11-24T13:13:09.058Z,2.50
2023-11-24T13:16:50.837Z,1.70
2023-11-24T13:20:34.204Z,1.40
2023-11-24T13:24:24.410Z,1.40
2023-11-24T13:28:13.787Z,1.80
2023-11-24T13:32:02.577Z,1.30
2023-11-24T13:35:50.764Z,0.60
2023-11-24T13:39:45.928Z,0.80
2023-11-24T13:43:27.813Z,1.10
2023-11-24T13:47:16.954Z,0.80
2023-11-24T13:50:38.534Z,1.00
2023-11-24T13:54:20.062Z,0.90
2023-11-24T13:58:07.896Z,1.00
2023-11-24T14:01:57.104Z,13.30
2023-11-24T14:05:46.350Z,4.70
2023-11-24T14:09:41.473Z,1.00
2023-11-24T14:13:20.520Z,1.50
2023-11-24T14:16:52.000Z,1.90
2023-11-24T14:20:41.220Z,1.10
2023-11-24T14:24:30.307Z,0.90
2023-11-24T14:28:08.108Z,0.90
2023-11-24T14:31:57.045Z,1.40
2023-11-24T14:35:45.977Z,1.30
2023-11-24T14:39:23.752Z,0.70
2023-11-24T14:43:12.816Z,1.20
2023-11-24T14:46:51.258Z,0.80
2023-11-24T14:50:22.910Z,0.80
2023-11-24T14:53:59.389Z,1.20
2023-11-24T14:57:48.066Z,1.60
2023-11-24T15:01:31.055Z,1.30
2023-11-24T15:05:20.085Z,1.00
2023-11-24T15:09:12.136Z,0.70
2023-11-24T15:12:59.574Z,1.20
2023-11-24T15:16:48.754Z,1.10
2023-11-24T15:20:37.405Z,0.90
2023-11-24T15:24:26.315Z,1.20
2023-11-24T15:28:19.347Z,1.40
2023-11-24T15:32:06.788Z,1.80
2023-11-24T15:35:56.093Z,2.00
2023-11-24T15:40:00.436Z,2.10
2023-11-24T15:42:55.442Z,2.20
2023-11-24T15:46:36.753Z,2.00
2023-11-24T15:50:25.697Z,3.00
2023-11-24T15:54:14.745Z,2.10
2023-11-24T15:58:03.942Z,2.50
2023-11-24T16:01:38.065Z,2.00
2023-11-24T16:05:07.245Z,1.70
2023-11-24T16:08:59.022Z,3.20
2023-11-24T16:12:40.563Z,5.80
2023-11-24T16:16:29.753Z,6.70
2023-11-24T16:20:16.420Z,7.80
2023-11-24T16:24:05.618Z,6.80
2023-11-24T16:27:55.087Z,8.00
2023-11-24T16:31:44.071Z,5.40
2023-11-24T16:35:33.277Z,4.70
2023-11-24T16:39:22.319Z,5.20
2023-11-24T16:43:11.344Z,6.90
2023-11-24T16:47:00.617Z,5.00
2023-11-24T16:50:49.802Z,4.40
2023-11-24T16:54:31.782Z,2.50
2023-11-24T16:58:20.826Z,5.00
2023-11-24T17:01:17.678Z,5.40
2023-11-24T17:04:59.719Z,4.30
2023-11-24T17:08:48.788Z,2.90
2023-11-24T17:12:37.738Z,3.50
2023-11-24T17:16:20.049Z,3.70
2023-11-24T17:20:09.111Z,4.90
2023-11-24T17:23:58.231Z,4.60
2023-11-24T17:27:47.216Z,4.90
2023-11-24T17:31:35.278Z,3.40
2023-11-24T17:35:24.279Z,4.30
2023-11-24T17:39:13.350Z,5.40
2023-11-24T17:43:01.395Z,7.00
2023-11-24T17:46:40.814Z,7.30
2023-11-24T17:50:30.058Z,6.90
2023-11-24T17:54:13.063Z,8.40
2023-11-24T17:58:02.076Z,4.80
2023-11-24T18:01:51.445Z,9.40
2023-11-24T18:05:40.566Z,7.10
2023-11-24T18:09:22.901Z,5.40
2023-11-24T18:13:02.394Z,7.40
2023-11-24T18:16:44.026Z,4.30
2023-11-24T18:20:25.568Z,3.50
2023-11-24T18:24:14.521Z,5.90
2023-11-24T18:28:03.337Z,10.50
2023-11-24T18:31:44.820Z,3.50
2023-11-24T18:35:23.788Z,3.70
2023-11-24T18:39:05.635Z,3.70
2023-11-24T18:42:47.723Z,4.00
2023-11-24T18:46:36.804Z,7.00
2023-11-24T18:50:24.769Z,3.80
2023-11-24T18:54:13.854Z,5.30
2023-11-24T18:57:55.215Z,3.90
2023-11-24T19:01:44.212Z,6.60
2023-11-24T19:05:33.424Z,7.60
2023-11-24T19:09:22.376Z,9.10
2023-11-24T19:13:12.278Z,7.10
2023-11-24T19:17:01.301Z,5.50
2023-11-24T19:20:50.501Z,5.90
2023-11-24T19:24:39.293Z,7.40
2023-11-24T19:28:29.062Z,5.40
2023-11-24T19:32:11.173Z,6.80
2023-11-24T19:35:53.110Z,6.90
2023-11-24T19:39:42.198Z,11.10
2023-11-24T19:43:29.762Z,12.00
2023-11-24T19:47:17.974Z,10.80
2023-11-24T19:51:07.183Z,10.90
2023-11-24T19:55:50.349Z,10.90
2023-11-24T19:59:05.010Z,10.00
2023-11-24T20:02:54.059Z,8.90
2023-11-24T20:06:32.238Z,8.30
2023-11-24T20:10:21.324Z,8.40
2023-11-24T20:14:02.877Z,6.80
2023-11-24T20:17:52.176Z,7.90
2023-11-24T20:21:41.201Z,8.30
2023-11-24T20:25:24.152Z,7.40
2023-11-24T20:29:13.241Z,8.20
2023-11-24T20:32:56.098Z,9.50
2023-11-24T20:36:45.140Z,8.00
2023-11-24T20:40:33.233Z,9.10
2023-11-24T20:44:14.692Z,12.40
2023-11-24T20:47:57.572Z,9.50
2023-11-24T20:51:46.623Z,15.90
2023-11-24T20:55:20.984Z,10.70
2023-11-24T20:59:10.089Z,9.40
2023-11-24T21:02:59.219Z,8.10
2023-11-24T21:06:48.322Z,10.20
2023-11-24T21:10:37.280Z,8.90
2023-11-24T21:14:26.433Z,9.40
2023-11-24T21:18:08.667Z,6.40
2023-11-24T21:21:57.140Z,7.60
2023-11-24T21:25:46.307Z,6.50
2023-11-24T21:29:35.262Z,10.70
2023-11-24T21:33:24.214Z,10.00
2023-11-24T21:37:13.292Z,9.20
2023-11-24T21:41:02.450Z,8.30
2023-11-24T21:44:53.325Z,8.60
2023-11-24T21:48:35.542Z,10.10
2023-11-24T21:52:24.257Z,8.20
2023-11-24T21:56:06.530Z,10.10
2023-11-24T21:59:55.652Z,10.20
2023-11-24T22:03:47.551Z,8.10
2023-11-24T22:07:36.535Z,9.10
2023-11-24T22:11:25.655Z,9.30
2023-11-24T22:15:18.348Z,11.60
2023-11-24T22:19:10.242Z,9.30
2023-11-24T22:22:58.276Z,6.90
2023-11-24T22:26:48.550Z,7.60
2023-11-24T22:30:37.793Z,7.30
2023-11-24T22:34:26.884Z,5.80
2023-11-24T22:38:08.665Z,4.60
2023-11-24T22:41:57.831Z,5.50
2023-11-24T22:45:40.607Z,5.80
2023-11-24T22:49:28.489Z,4.20
2023-11-24T22:53:09.842Z,6.70
2023-11-24T22:56:58.835Z,6.70
2023-11-24T23:00:56.965Z,6.10
2023-11-24T23:04:46.612Z,6.50
2023-11-24T23:08:35.721Z,6.30
2023-11-24T23:12:25.032Z,6.60
2023-11-24T23:16:05.462Z,6.20
2023-11-24T23:19:54.459Z,3.60
2023-11-24T23:23:43.487Z,5.10
2023-11-24T23:27:32.658Z,4.80
2023-11-24T23:31:24.812Z,3.80
2023-11-24T23:35:15.800Z,4.40
2023-11-24T23:39:03.636Z,3.30
2023-11-24T23:42:55.632Z,3.20
2023-11-24T23:46:44.833Z,3.00
2023-11-24T23:50:35.016Z,4.10
2023-11-24T23:54:24.175Z,3.60
2023-11-24T23:58:13.228Z,3.20
